Time;durP1;ratioP1;P1;durP2;ratioP2;P2;SDS_P1;SDS_P2;PMS_P1;PMS_P2;Temp;Humidity;BMP_temperature;BMP_pressure;BME280_temperature;BME280_humidity;BME280_pressure;Samples;Min_cycle;Max_cycle;Signal;HPM_P1;HPM_P2
2023/01/15 00:01:34;;;;;;;0.30;0.20;;;8.00;99.90;;;;;;5074169;28;20445;-82
2023/01/15 00:04:04;;;;;;;0.30;0.30;;;8.00;99.90;;;;;;5074061;28;20453;-83
2023/01/15 00:06:31;;;;;;;0.30;0.30;;;7.90;99.90;;;;;;5074142;28;20761;-83
2023/01/15 00:08:59;;;;;;;11.37;0.50;;;8.00;99.90;;;;;;5073958;28;20445;-83
2023/01/15 00:11:25;;;;;;;0.30;0.20;;;8.00;99.90;;;;;;5074041;28;20453;-82
2023/01/15 00:13:52;;;;;;;0.30;0.30;;;8.00;99.90;;;;;;5073752;28;20940;-83
2023/01/15 00:16:21;;;;;;;0.37;0.30;;;8.10;99.90;;;;;;5073134;28;20489;-83
2023/01/15 00:18:51;;;;;;;0.30;0.20;;;8.10;99.90;;;;;;5073558;28;20487;-83
2023/01/15 00:21:20;;;;;;;0.30;0.30;;;8.10;99.90;;;;;;5073499;28;20953;-83
2023/01/15 00:29:18;;;;;;;0.30;0.30;;;8.10;99.90;;;;;;5073887;28;20884;-83
2023/01/15 00:31:51;;;;;;;0.30;0.20;;;8.10;99.90;;;;;;5074559;28;20462;-83
2023/01/15 00:34:18;;;;;;;1.07;0.30;;;8.00;99.90;;;;;;5073417;28;20973;-83
2023/01/15 00:36:46;;;;;;;0.30;0.20;;;8.00;99.90;;;;;;5073762;28;20449;-83
2023/01/15 00:39:13;;;;;;;1.50;0.50;;;8.10;99.90;;;;;;5073402;28;20988;-83
2023/01/15 00:41:39;;;;;;;0.30;0.20;;;8.10;99.90;;;;;;5073610;28;20442;-83
2023/01/15 00:44:06;;;;;;;0.30;0.20;;;8.10;99.90;;;;;;5073947;28;20445;-83
2023/01/15 00:46:33;;;;;;;0.30;0.20;;;8.10;99.90;;;;;;5073867;28;20450;-83
2023/01/15 00:49:00;;;;;;;0.30;0.20;;;8.10;99.90;;;;;;5073619;28;20481;-83
2023/01/15 00:51:26;;;;;;;0.30;0.20;;;8.20;99.90;;;;;;5073186;28;20937;-82
2023/01/15 00:53:54;;;;;;;0.30;0.20;;;8.20;99.90;;;;;;5073611;28;20454;-82
2023/01/15 00:56:21;;;;;;;0.50;0.30;;;8.20;99.90;;;;;;5073031;28;20988;-83
2023/01/15 00:58:48;;;;;;;0.30;0.20;;;8.30;99.90;;;;;;5073314;28;20496;-82
2023/01/15 01:01:15;;;;;;;0.30;0.30;;;8.30;99.90;;;;;;5073095;28;20449;-82
2023/01/15 01:03:42;;;;;;;0.30;0.20;;;8.30;99.90;;;;;;5073422;28;20450;-82
2023/01/15 01:06:09;;;;;;;0.30;0.20;;;8.30;99.90;;;;;;5073241;28;20465;-82
2023/01/15 01:08:36;;;;;;;0.30;0.20;;;8.30;99.90;;;;;;5073283;28;20477;-82
2023/01/15 01:11:05;;;;;;;0.40;0.30;;;8.20;99.90;;;;;;5073341;28;20461;-82
2023/01/15 01:13:32;;;;;;;0.40;0.30;;;8.30;99.90;;;;;;5073318;28;20445;-82
2023/01/15 01:15:59;;;;;;;0.30;0.20;;;8.20;99.90;;;;;;5072706;28;20504;-82
2023/01/15 01:18:26;;;;;;;0.30;0.20;;;8.20;99.90;;;;;;5073148;28;20492;-82
2023/01/15 01:20:53;;;;;;;0.30;0.30;;;8.20;99.90;;;;;;5073385;28;20955;-83
2023/01/15 01:23:20;;;;;;;0.30;0.20;;;8.20;99.90;;;;;;5072895;28;20959;-82
2023/01/15 01:25:46;;;;;;;0.30;0.20;;;8.20;99.90;;;;;;5073071;28;20469;-83
2023/01/15 01:28:14;;;;;;;0.30;0.20;;;8.20;99.90;;;;;;5075456;28;20456;-83
2023/01/15 01:30:41;;;;;;;0.30;0.20;;;8.20;99.90;;;;;;5077157;28;20441;-82
2023/01/15 01:33:08;;;;;;;0.30;0.20;;;8.30;99.90;;;;;;5077222;28;20490;-83
2023/01/15 01:35:35;;;;;;;0.30;0.20;;;8.30;99.90;;;;;;5076672;28;21003;-83
2023/01/15 01:38:02;;;;;;;0.30;0.20;;;8.30;99.90;;;;;;5076821;28;20480;-83
2023/01/15 01:40:29;;;;;;;0.30;0.30;;;8.40;99.90;;;;;;5077306;28;20776;-83
2023/01/15 01:42:56;;;;;;;0.30;0.20;;;8.50;99.90;;;;;;5076994;28;20460;-83
2023/01/15 01:45:27;;;;;;;0.30;0.20;;;8.50;99.90;;;;;;5077075;28;20480;-83
2023/01/15 01:47:57;;;;;;;0.30;0.20;;;8.60;99.90;;;;;;5076833;28;20422;-83
2023/01/15 01:50:25;;;;;;;0.30;0.30;;;8.50;99.90;;;;;;5076493;28;20912;-83
2023/01/15 01:52:56;;;;;;;0.30;0.20;;;8.60;99.90;;;;;;5076387;28;20937;-83
2023/01/15 01:55:24;;;;;;;0.40;0.30;;;8.60;99.90;;;;;;5076622;28;20461;-83
2023/01/15 01:57:53;;;;;;;0.30;0.30;;;8.60;99.90;;;;;;5076537;28;20481;-84
2023/01/15 02:00:21;;;;;;;0.30;0.30;;;8.60;99.90;;;;;;5076608;28;20449;-84
2023/01/15 02:02:51;;;;;;;0.30;0.30;;;8.70;99.90;;;;;;5076541;28;20843;-83
2023/01/15 02:05:30;;;;;;;0.30;0.20;;;8.70;99.90;;;;;;5076387;28;20477;-83
2023/01/15 02:07:57;;;;;;;0.40;0.30;;;8.70;99.90;;;;;;5076511;28;20433;-84
2023/01/15 02:10:24;;;;;;;0.30;0.20;;;8.70;99.90;;;;;;5076239;28;20944;-84
2023/01/15 02:13:00;;;;;;;0.40;0.30;;;8.80;99.90;;;;;;5076327;28;20445;-83
2023/01/15 02:15:31;;;;;;;0.30;0.20;;;8.80;99.90;;;;;;5075869;28;21003;-84
2023/01/15 02:18:09;;;;;;;0.40;0.30;;;8.80;99.90;;;;;;5076171;28;20457;-84
2023/01/15 02:20:40;;;;;;;0.30;0.20;;;8.80;99.90;;;;;;5076232;28;20425;-83
2023/01/15 02:23:24;;;;;;;0.30;0.20;;;8.80;99.90;;;;;;5075945;28;20920;-83
2023/01/15 02:26:21;;;;;;;0.30;0.20;;;8.80;99.90;;;;;;5076027;28;20473;-84
2023/01/15 02:28:51;;;;;;;0.30;0.20;;;8.70;99.90;;;;;;5075077;28;20925;-84
2023/01/15 02:31:25;;;;;;;1.70;0.30;;;8.80;99.90;;;;;;5076251;28;20437;-84
2023/01/15 02:34:04;;;;;;;0.30;0.20;;;8.80;99.90;;;;;;5075938;28;20939;-84
2023/01/15 02:36:35;;;;;;;0.30;0.20;;;8.80;99.90;;;;;;5076133;28;20436;-85
2023/01/15 02:39:06;;;;;;;0.30;0.20;;;8.90;99.90;;;;;;5076541;28;20465;-84
2023/01/15 02:41:37;;;;;;;0.30;0.20;;;8.80;99.90;;;;;;5075873;28;20413;-84
2023/01/15 02:44:08;;;;;;;0.40;0.30;;;8.80;99.90;;;;;;5076412;28;20441;-84
2023/01/15 02:46:38;;;;;;;0.30;0.30;;;8.90;99.90;;;;;;5076397;28;20430;-84
2023/01/15 02:49:08;;;;;;;0.30;0.20;;;8.90;99.90;;;;;;5075791;28;20434;-84
2023/01/15 02:51:39;;;;;;;0.30;0.30;;;8.90;99.90;;;;;;5075626;28;20434;-84
2023/01/15 02:54:11;;;;;;;0.30;0.30;;;9.00;99.90;;;;;;5075485;28;20437;-84
2023/01/15 02:56:40;;;;;;;0.30;0.30;;;9.10;99.90;;;;;;5075931;28;20429;-84
2023/01/15 02:59:12;;;;;;;0.30;0.20;;;9.10;99.90;;;;;;5075451;28;20481;-83
2023/01/15 03:01:45;;;;;;;0.30;0.20;;;9.20;99.90;;;;;;5076313;28;20426;-83
2023/01/15 03:04:17;;;;;;;0.30;0.23;;;9.20;99.90;;;;;;5074969;28;20906;-83
2023/01/15 03:06:48;;;;;;;0.30;0.20;;;9.20;99.90;;;;;;5075566;28;20437;-83
2023/01/15 03:09:16;;;;;;;0.30;0.20;;;9.40;99.90;;;;;;5075361;28;20434;-84
2023/01/15 03:11:46;;;;;;;0.37;0.30;;;9.50;99.90;;;;;;5075129;28;20445;-84
2023/01/15 03:14:20;;;;;;;0.30;0.30;;;9.50;99.90;;;;;;5075102;28;20783;-83
2023/01/15 03:16:51;;;;;;;0.30;0.20;;;9.50;99.90;;;;;;5074765;28;20484;-83
2023/01/15 03:19:24;;;;;;;0.30;0.20;;;9.50;99.90;;;;;;5075000;28;20468;-82
2023/01/15 03:21:56;;;;;;;0.30;0.30;;;9.50;99.90;;;;;;5074705;28;20430;-83
2023/01/15 03:24:28;;;;;;;0.30;0.30;;;9.60;99.90;;;;;;5075525;28;20466;-83
2023/01/15 03:26:55;;;;;;;0.30;0.20;;;9.60;99.90;;;;;;5075891;28;20483;-83
2023/01/15 03:29:25;;;;;;;0.30;0.20;;;9.50;99.90;;;;;;5075473;28;20498;-83
2023/01/15 03:31:52;;;;;;;0.30;0.20;;;9.50;99.90;;;;;;5074910;28;20430;-83
2023/01/15 03:34:19;;;;;;;0.30;0.30;;;9.70;99.90;;;;;;5074598;28;20461;-83
2023/01/15 03:36:46;;;;;;;0.30;0.20;;;9.60;99.90;;;;;;5074784;28;20472;-83
2023/01/15 03:39:13;;;;;;;0.30;0.20;;;9.70;99.90;;;;;;5074855;28;20489;-83
2023/01/15 03:41:51;;;;;;;0.30;0.20;;;9.70;99.90;;;;;;5074676;28;20449;-83
2023/01/15 03:44:32;;;;;;;0.30;0.20;;;9.70;99.90;;;;;;5074461;28;20483;-83
2023/01/15 03:47:07;;;;;;;0.53;0.37;;;9.60;99.90;;;;;;5074496;28;20461;-83
2023/01/15 03:49:49;;;;;;;0.30;0.20;;;9.60;99.90;;;;;;5073931;28;20436;-83
2023/01/15 03:52:22;;;;;;;0.30;0.20;;;9.60;99.90;;;;;;5074412;28;20430;-83
2023/01/15 03:54:57;;;;;;;0.30;0.20;;;9.70;99.90;;;;;;5074189;28;20453;-82
2023/01/15 03:57:30;;;;;;;0.30;0.20;;;9.70;99.90;;;;;;5074006;28;20916;-83
2023/01/15 04:00:02;;;;;;;0.30;0.20;;;9.70;99.90;;;;;;5074668;28;20477;-83
2023/01/15 04:02:30;;;;;;;0.30;0.20;;;9.80;99.90;;;;;;5074218;28;20445;-83
2023/01/15 04:04:58;;;;;;;0.30;0.20;;;9.80;99.90;;;;;;5074067;28;20478;-83
2023/01/15 04:07:26;;;;;;;0.30;0.20;;;9.90;99.90;;;;;;5073775;28;20971;-83
2023/01/15 04:09:53;;;;;;;0.30;0.30;;;9.90;99.90;;;;;;5074024;28;20449;-83
2023/01/15 04:12:19;;;;;;;0.30;0.20;;;9.90;99.90;;;;;;5074137;28;20449;-82
2023/01/15 04:14:46;;;;;;;0.30;0.20;;;9.90;99.90;;;;;;5073619;28;20465;-82
2023/01/15 04:17:14;;;;;;;0.40;0.30;;;9.90;99.90;;;;;;5073127;28;20430;-83
2023/01/15 04:19:42;;;;;;;0.30;0.30;;;9.90;99.90;;;;;;5072929;28;20484;-83
2023/01/15 04:22:11;;;;;;;0.33;0.33;;;9.90;99.90;;;;;;5072798;28;20952;-83
2023/01/15 04:24:37;;;;;;;0.30;0.20;;;10.00;99.90;;;;;;5072902;28;20458;-83
2023/01/15 04:27:04;;;;;;;0.30;0.20;;;10.00;99.90;;;;;;5073014;28;20449;-83
2023/01/15 04:29:31;;;;;;;0.30;0.20;;;10.10;99.90;;;;;;5072660;28;20945;-83
2023/01/15 04:31:57;;;;;;;0.30;0.30;;;10.00;99.90;;;;;;5072907;28;20476;-83
2023/01/15 04:34:26;;;;;;;0.30;0.20;;;10.00;99.90;;;;;;5073176;28;20465;-83
2023/01/15 04:36:53;;;;;;;0.30;0.20;;;10.00;99.90;;;;;;5072562;28;20965;-83
2023/01/15 04:39:20;;;;;;;0.30;0.30;;;10.00;99.90;;;;;;5072720;28;20485;-83
2023/01/15 04:44:32;;;;;;;0.30;0.20;;;10.10;99.90;;;;;;5072802;28;20798;-82
2023/01/15 04:46:59;;;;;;;0.30;0.20;;;10.10;99.90;;;;;;5072774;28;20449;-83
2023/01/15 04:49:27;;;;;;;0.30;0.30;;;10.10;99.90;;;;;;5072678;28;20480;-83
2023/01/15 04:51:54;;;;;;;0.40;0.27;;;10.10;99.90;;;;;;5072719;28;20446;-83
2023/01/15 04:54:22;;;;;;;0.30;0.20;;;10.10;99.90;;;;;;5072647;28;20472;-83
2023/01/15 04:56:50;;;;;;;0.30;0.20;;;10.10;99.90;;;;;;5072585;28;20449;-84
2023/01/15 04:59:19;;;;;;;0.37;0.27;;;10.10;99.90;;;;;;5072424;28;20491;-83
2023/01/15 05:01:46;;;;;;;0.30;0.30;;;10.10;99.90;;;;;;5071275;28;20446;-83
2023/01/15 05:04:12;;;;;;;0.30;0.30;;;10.10;99.90;;;;;;5072407;28;20491;-83
2023/01/15 05:06:40;;;;;;;0.30;0.20;;;10.10;99.90;;;;;;5072534;28;20456;-84
2023/01/15 05:09:07;;;;;;;0.30;0.20;;;10.10;99.90;;;;;;5072635;28;20454;-84
2023/01/15 05:11:35;;;;;;;0.30;0.20;;;10.20;99.90;;;;;;5072196;28;20858;-84
2023/01/15 05:14:02;;;;;;;0.30;0.20;;;10.30;99.90;;;;;;5072089;28;20928;-84
2023/01/15 05:16:29;;;;;;;0.30;0.20;;;10.40;99.90;;;;;;5036490;28;1036989;-84
2023/01/15 05:18:58;;;;;;;0.30;0.20;;;10.30;99.90;;;;;;5073139;28;20223;-83
2023/01/15 05:21:26;;;;;;;0.30;0.20;;;10.20;99.90;;;;;;5073255;28;20481;-83
2023/01/15 05:23:56;;;;;;;0.30;0.20;;;10.20;99.90;;;;;;5073166;28;20449;-84
2023/01/15 05:26:25;;;;;;;0.40;0.30;;;10.20;99.90;;;;;;5073073;28;20475;-83
2023/01/15 05:28:53;;;;;;;0.30;0.20;;;10.20;99.90;;;;;;5073124;28;20441;-83
2023/01/15 05:31:20;;;;;;;0.30;0.30;;;10.30;99.90;;;;;;5073165;28;20441;-83
2023/01/15 05:33:48;;;;;;;0.30;0.20;;;10.30;99.90;;;;;;5073047;28;20468;-84
2023/01/15 05:36:17;;;;;;;0.30;0.30;;;10.20;99.90;;;;;;5072717;28;21002;-83
2023/01/15 05:38:44;;;;;;;0.30;0.20;;;10.30;99.90;;;;;;5072938;28;20481;-83
2023/01/15 05:44:01;;;;;;;0.30;0.20;;;10.00;99.90;;;;;;5072697;28;20487;-82
2023/01/15 05:46:28;;;;;;;0.30;0.20;;;9.80;99.90;;;;;;5072609;28;20452;-82
2023/01/15 05:48:55;;;;;;;0.30;0.20;;;9.50;99.90;;;;;;5072621;28;20819;-82
2023/01/15 05:51:21;;;;;;;0.40;0.40;;;9.20;99.90;;;;;;5072887;28;20434;-81
2023/01/15 05:53:48;;;;;;;0.30;0.23;;;8.90;99.90;;;;;;5072857;28;20441;-82
2023/01/15 05:56:16;;;;;;;0.30;0.20;;;8.70;99.90;;;;;;5072707;28;20472;-82
2023/01/15 05:58:43;;;;;;;0.30;0.20;;;8.50;99.90;;;;;;5072883;28;20460;-82
2023/01/15 06:01:10;;;;;;;0.30;0.20;;;8.40;99.90;;;;;;5072782;28;20449;-82
2023/01/15 06:03:37;;;;;;;0.30;0.30;;;8.30;99.90;;;;;;5072505;28;20445;-82
2023/01/15 06:06:05;;;;;;;0.30;0.20;;;8.20;99.90;;;;;;5072656;28;20473;-82
2023/01/15 06:08:31;;;;;;;0.30;0.20;;;8.10;99.90;;;;;;5072717;28;20445;-82
2023/01/15 06:10:58;;;;;;;0.30;0.20;;;8.00;99.90;;;;;;5072709;28;20548;-82
2023/01/15 06:13:26;;;;;;;0.30;0.30;;;7.90;99.90;;;;;;5074447;28;20449;-82
2023/01/15 06:15:53;;;;;;;0.30;0.20;;;7.80;99.90;;;;;;5075662;28;20481;-82
2023/01/15 06:18:19;;;;;;;0.30;0.20;;;7.70;99.90;;;;;;5076186;28;20446;-82
2023/01/15 06:20:46;;;;;;;0.30;0.20;;;7.70;99.90;;;;;;5076038;28;20492;-82
2023/01/15 06:23:13;;;;;;;0.30;0.20;;;7.60;99.90;;;;;;5076103;28;20454;-83
2023/01/15 06:25:39;;;;;;;0.30;0.20;;;7.60;99.90;;;;;;5075973;28;20464;-82
2023/01/15 06:28:07;;;;;;;0.30;0.20;;;7.60;99.90;;;;;;5076027;28;20453;-82
2023/01/15 06:30:38;;;;;;;0.30;0.30;;;7.50;99.90;;;;;;5075653;28;20932;-82
2023/01/15 06:33:04;;;;;;;0.30;0.20;;;7.50;99.90;;;;;;5075943;28;20430;-82
2023/01/15 06:35:31;;;;;;;0.30;0.30;;;7.50;99.90;;;;;;5075819;28;20481;-82
2023/01/15 06:37:58;;;;;;;0.30;0.20;;;7.40;99.90;;;;;;5075846;28;20460;-82
2023/01/15 06:40:25;;;;;;;0.30;0.30;;;7.40;99.90;;;;;;5075544;28;21000;-82
2023/01/15 06:48:27;;;;;;;0.30;0.30;;;7.10;99.90;;;;;;5075677;28;20414;-81
2023/01/15 06:50:54;;;;;;;0.30;0.20;;;7.00;99.90;;;;;;5075546;28;20520;-81
2023/01/15 06:53:21;;;;;;;0.30;0.30;;;7.00;99.90;;;;;;5075284;28;20984;-81
2023/01/15 06:55:48;;;;;;;0.30;0.20;;;7.00;99.90;;;;;;5075445;28;20470;-81
2023/01/15 06:58:15;;;;;;;0.30;0.20;;;6.90;99.90;;;;;;5075669;28;20450;-81
2023/01/15 07:00:45;;;;;;;0.30;0.30;;;6.90;99.90;;;;;;5075273;28;20485;-81
2023/01/15 07:03:13;;;;;;;0.30;0.20;;;6.80;99.90;;;;;;5075627;28;20464;-81
2023/01/15 07:05:40;;;;;;;0.50;0.30;;;6.80;99.90;;;;;;5075234;28;20519;-81
2023/01/15 07:08:06;;;;;;;0.30;0.20;;;6.80;99.90;;;;;;5074976;28;20941;-81
2023/01/15 07:10:34;;;;;;;0.30;0.20;;;6.80;99.90;;;;;;5074897;28;20437;-81
2023/01/15 07:13:01;;;;;;;0.30;0.20;;;6.80;99.90;;;;;;5075209;28;20495;-81
2023/01/15 07:15:29;;;;;;;0.30;0.27;;;6.80;99.90;;;;;;5075008;28;20489;-81
2023/01/15 07:17:57;;;;;;;0.30;0.23;;;6.70;99.90;;;;;;5075125;28;20536;-81
2023/01/15 07:20:24;;;;;;;0.30;0.20;;;6.70;99.90;;;;;;5075008;28;20956;-81
2023/01/15 07:22:52;;;;;;;0.30;0.30;;;6.60;99.90;;;;;;5074948;28;20449;-81
2023/01/15 07:25:19;;;;;;;0.30;0.20;;;6.60;99.90;;;;;;5074140;28;20468;-81
2023/01/15 07:27:47;;;;;;;0.30;0.20;;;6.50;99.90;;;;;;5074855;28;20453;-81
2023/01/15 07:30:14;;;;;;;0.30;0.30;;;6.50;99.90;;;;;;5074823;28;20473;-81
2023/01/15 07:32:41;;;;;;;0.30;0.20;;;6.50;99.90;;;;;;5074742;28;20453;-81
2023/01/15 07:35:09;;;;;;;0.30;0.20;;;6.50;99.90;;;;;;5074660;28;20464;-81
2023/01/15 07:37:38;;;;;;;0.30;0.20;;;6.40;99.90;;;;;;5074369;28;20936;-81
2023/01/15 07:40:06;;;;;;;0.30;0.20;;;6.40;99.90;;;;;;5074502;28;20478;-81
2023/01/15 07:50:46;;;;;;;0.30;0.20;;;6.30;99.90;;;;;;5074432;28;20403;-81
2023/01/15 07:53:13;;;;;;;0.87;0.30;;;6.20;99.90;;;;;;5074360;28;20452;-81
2023/01/15 07:55:39;;;;;;;0.30;0.20;;;6.20;99.90;;;;;;5074200;28;20465;-81
2023/01/15 07:58:06;;;;;;;0.30;0.30;;;6.20;99.90;;;;;;5074229;28;20801;-81
2023/01/15 08:00:33;;;;;;;0.30;0.20;;;6.20;99.90;;;;;;5074125;28;20481;-81
2023/01/15 08:03:01;;;;;;;0.50;0.30;;;6.20;99.90;;;;;;5074168;28;20851;-81
2023/01/15 08:05:28;;;;;;;0.30;0.20;;;6.20;99.90;;;;;;5074015;28;20466;-81
2023/01/15 08:07:56;;;;;;;0.30;0.30;;;6.20;99.90;;;;;;5074050;28;20446;-82
2023/01/15 08:10:24;;;;;;;0.30;0.20;;;6.20;99.90;;;;;;5074008;28;20444;-81
2023/01/15 08:15:39;;;;;;;0.30;0.20;;;6.10;99.90;;;;;;5073474;28;20477;-81
2023/01/15 08:18:06;;;;;;;0.30;0.20;;;6.10;99.90;;;;;;5074025;28;20457;-82
2023/01/15 08:20:35;;;;;;;0.30;0.20;;;6.20;99.90;;;;;;5073780;28;20485;-82
2023/01/15 08:23:03;;;;;;;0.30;0.20;;;6.20;99.90;;;;;;5073772;28;20480;-81
2023/01/15 08:25:29;;;;;;;0.30;0.30;;;6.20;99.90;;;;;;5073683;28;20470;-81
2023/01/15 08:28:00;;;;;;;0.30;0.20;;;6.20;99.90;;;;;;5073658;28;20460;-82
2023/01/15 08:30:26;;;;;;;0.30;0.20;;;6.20;99.90;;;;;;5073745;28;20429;-81
2023/01/15 08:32:58;;;;;;;0.30;0.20;;;6.20;99.90;;;;;;5073639;28;20445;-82
2023/01/15 08:35:25;;;;;;;0.30;0.20;;;6.20;99.90;;;;;;5073770;28;20461;-81
2023/01/15 08:37:52;;;;;;;0.30;0.20;;;6.20;99.90;;;;;;5073381;28;20449;-81
2023/01/15 08:40:20;;;;;;;0.30;0.20;;;6.20;99.90;;;;;;5073213;28;20883;-83
2023/01/15 08:42:47;;;;;;;0.30;0.30;;;6.20;99.90;;;;;;5073578;28;20535;-81
2023/01/15 08:45:14;;;;;;;0.30;0.20;;;6.30;99.90;;;;;;5073393;28;20465;-80
2023/01/15 08:47:41;;;;;;;0.30;0.20;;;6.20;99.90;;;;;;5073486;28;20453;-80
2023/01/15 08:50:09;;;;;;;0.30;0.20;;;6.20;99.90;;;;;;5073445;28;20444;-82
2023/01/15 08:52:36;;;;;;;0.30;0.20;;;6.20;99.90;;;;;;5073521;28;20453;-81
2023/01/15 08:55:03;;;;;;;0.40;0.30;;;6.10;99.90;;;;;;5073446;28;20472;-82
2023/01/15 08:57:32;;;;;;;0.30;0.20;;;6.10;99.90;;;;;;5073652;28;20449;-82
2023/01/15 08:59:58;;;;;;;1.33;0.40;;;6.10;99.90;;;;;;5073306;28;20489;-82
2023/01/15 09:02:26;;;;;;;0.30;0.20;;;6.10;99.90;;;;;;5073331;28;20437;-81
2023/01/15 09:04:53;;;;;;;0.30;0.20;;;6.10;99.90;;;;;;5073214;28;20514;-81
2023/01/15 09:07:20;;;;;;;0.30;0.20;;;6.10;99.90;;;;;;5072985;28;20442;-81
2023/01/15 09:09:46;;;;;;;0.30;0.20;;;6.10;99.90;;;;;;5073266;28;20442;-81
2023/01/15 09:12:14;;;;;;;0.30;0.30;;;6.10;99.90;;;;;;5073214;28;20445;-81
2023/01/15 09:14:42;;;;;;;0.37;0.27;;;6.10;99.90;;;;;;5072986;28;20485;-81
2023/01/15 09:17:09;;;;;;;0.30;0.20;;;6.00;99.90;;;;;;5073203;28;20437;-81
2023/01/15 09:19:35;;;;;;;0.30;0.20;;;6.10;99.90;;;;;;5073370;28;20449;-81
2023/01/15 09:22:02;;;;;;;0.30;0.30;;;6.10;99.90;;;;;;5073137;28;20448;-81
2023/01/15 09:24:29;;;;;;;0.77;0.37;;;6.00;99.90;;;;;;5072687;28;20993;-81
2023/01/15 09:26:55;;;;;;;0.30;0.30;;;6.00;99.90;;;;;;5073234;28;20449;-81
2023/01/15 09:29:22;;;;;;;0.30;0.30;;;6.00;99.90;;;;;;5072740;28;20941;-81
2023/01/15 09:31:50;;;;;;;0.40;0.30;;;6.00;99.90;;;;;;5073012;28;20446;-81
2023/01/15 09:34:17;;;;;;;0.30;0.20;;;6.00;99.90;;;;;;5072609;28;20452;-81
2023/01/15 09:36:45;;;;;;;0.30;0.30;;;6.10;99.90;;;;;;5072596;28;20948;-81
2023/01/15 09:39:12;;;;;;;0.30;0.20;;;6.10;99.90;;;;;;5072947;28;20478;-81
2023/01/15 09:42:08;;;;;;;0.30;0.20;;;6.00;99.90;;;;;;5072829;28;20485;-81
2023/01/15 09:44:51;;;;;;;0.30;0.20;;;6.10;99.90;;;;;;5072912;28;20570;-82
2023/01/15 09:47:27;;;;;;;0.30;0.30;;;6.10;99.90;;;;;;5072916;28;20445;-81
2023/01/15 09:50:04;;;;;;;0.30;0.23;;;6.10;99.90;;;;;;5076450;28;20439;-81
2023/01/15 09:52:42;;;;;;;0.30;0.20;;;6.10;99.90;;;;;;5076353;28;20433;-81
2023/01/15 09:55:15;;;;;;;0.30;0.30;;;6.10;99.90;;;;;;5076193;28;20476;-81
2023/01/15 09:57:43;;;;;;;0.30;0.20;;;6.00;99.90;;;;;;5076528;28;20433;-81
2023/01/15 10:00:18;;;;;;;0.30;0.20;;;6.00;99.90;;;;;;5076324;28;20477;-82
2023/01/15 10:02:50;;;;;;;0.30;0.20;;;5.90;99.90;;;;;;5076457;28;20429;-82
2023/01/15 10:05:22;;;;;;;0.30;0.20;;;6.00;99.90;;;;;;5076378;28;20535;-81
2023/01/15 10:07:57;;;;;;;0.40;0.30;;;5.90;99.90;;;;;;5076334;28;20491;-81
2023/01/15 10:10:32;;;;;;;0.30;0.30;;;5.90;99.90;;;;;;5076346;28;20563;-82
2023/01/15 10:13:05;;;;;;;0.30;0.20;;;5.90;99.90;;;;;;5076251;28;20491;-81
2023/01/15 10:15:37;;;;;;;0.30;0.20;;;5.80;99.90;;;;;;5075842;28;20552;-81
2023/01/15 10:18:07;;;;;;;0.30;0.20;;;5.80;99.90;;;;;;5076216;28;20429;-81
2023/01/15 10:20:52;;;;;;;1.17;0.30;;;5.80;99.90;;;;;;5076383;28;20612;-81
2023/01/15 10:23:35;;;;;;;0.30;0.23;;;5.80;99.90;;;;;;5076015;28;20504;-81
2023/01/15 10:26:15;;;;;;;0.30;0.20;;;5.80;99.90;;;;;;5076004;28;20477;-82
2023/01/15 10:28:54;;;;;;;0.40;0.30;;;5.80;99.90;;;;;;5075987;28;20779;-81
2023/01/15 10:31:26;;;;;;;0.30;0.20;;;5.80;99.90;;;;;;5075957;28;20433;-81
2023/01/15 10:34:06;;;;;;;0.30;0.23;;;5.80;99.90;;;;;;5075905;28;20462;-81
2023/01/15 10:36:39;;;;;;;0.30;0.20;;;5.70;99.90;;;;;;5075922;28;20917;-81
2023/01/15 10:39:19;;;;;;;0.30;0.20;;;5.70;99.90;;;;;;5075809;28;20429;-81
2023/01/15 10:41:56;;;;;;;0.30;0.30;;;5.70;99.90;;;;;;5076067;28;20489;-81
2023/01/15 10:44:30;;;;;;;0.30;0.30;;;5.70;99.90;;;;;;5075656;28;20492;-81
2023/01/15 10:47:01;;;;;;;0.30;0.20;;;5.60;99.90;;;;;;5075403;28;20446;-82
2023/01/15 10:49:30;;;;;;;0.30;0.20;;;5.60;99.90;;;;;;5076538;28;20429;-81
2023/01/15 10:52:03;;;;;;;0.30;0.30;;;5.60;99.90;;;;;;5075622;28;20445;-81
2023/01/15 10:54:35;;;;;;;0.60;0.37;;;5.60;99.90;;;;;;5075532;28;20465;-81
2023/01/15 10:57:10;;;;;;;0.30;0.20;;;5.50;99.90;;;;;;5075240;28;20924;-81
2023/01/15 10:59:42;;;;;;;0.30;0.20;;;5.50;99.90;;;;;;5075111;28;20433;-82
2023/01/15 11:02:25;;;;;;;0.30;0.30;;;5.40;99.90;;;;;;5075386;28;20821;-81
2023/01/15 11:04:54;;;;;;;0.30;0.20;;;5.40;99.90;;;;;;5075287;28;20480;-81
2023/01/15 11:07:22;;;;;;;0.30;0.20;;;5.40;99.90;;;;;;5075326;28;20441;-80
2023/01/15 11:09:49;;;;;;;0.30;0.30;;;5.40;99.90;;;;;;5074922;28;20442;-80
2023/01/15 11:20:49;;;;;;;0.33;0.27;;;5.20;99.90;;;;;;5075023;28;20461;-81
2023/01/15 11:23:19;;;;;;;0.40;0.30;;;5.20;99.90;;;;;;5074928;28;20477;-80
2023/01/15 11:25:51;;;;;;;0.30;0.30;;;5.10;99.90;;;;;;5074549;28;20473;-82
2023/01/15 11:28:29;;;;;;;0.30;0.30;;;5.00;99.90;;;;;;5074873;28;20458;-81
2023/01/15 11:30:58;;;;;;;0.30;0.20;;;4.90;99.90;;;;;;5074822;28;20484;-81
2023/01/15 11:33:27;;;;;;;0.30;0.20;;;4.80;99.90;;;;;;5074804;28;20541;-81
2023/01/15 11:35:57;;;;;;;0.30;0.20;;;4.80;99.90;;;;;;5074600;28;20454;-81
2023/01/15 11:38:25;;;;;;;0.40;0.30;;;4.80;99.90;;;;;;5074781;28;20430;-82
2023/01/15 11:40:53;;;;;;;0.30;0.20;;;4.80;99.90;;;;;;5076675;28;20489;-81
2023/01/15 11:51:58;;;;;;;0.30;0.30;;;4.50;99.90;;;;;;5072205;28;20433;-81
2023/01/15 11:54:26;;;;;;;0.30;0.20;;;4.40;99.90;;;;;;5074319;28;20610;-81
2023/01/15 11:56:55;;;;;;;0.30;0.30;;;4.50;99.90;;;;;;5074048;28;20779;-81
2023/01/15 11:59:22;;;;;;;0.30;0.20;;;4.50;99.90;;;;;;5074290;28;20481;-81
2023/01/15 12:01:57;;;;;;;0.30;0.20;;;4.50;99.90;;;;;;5074305;28;20489;-81
2023/01/15 12:04:29;;;;;;;0.30;0.20;;;4.50;99.90;;;;;;5074214;28;20465;-81
2023/01/15 12:06:57;;;;;;;0.30;0.30;;;4.40;99.90;;;;;;5074138;28;20444;-81
2023/01/15 12:09:34;;;;;;;0.30;0.20;;;4.40;99.90;;;;;;5073919;28;20453;-81
2023/01/15 12:12:10;;;;;;;0.30;0.30;;;4.40;99.90;;;;;;5073588;28;20429;-82
2023/01/15 12:15:20;;;;;;;0.30;0.20;;;4.40;99.90;;;;;;5073565;28;20476;-82
2023/01/15 12:18:02;;;;;;;0.30;0.30;;;4.40;99.90;;;;;;5058484;28;20453;-82
2023/01/15 12:20:51;;;;;;;0.30;0.30;;;4.50;99.90;;;;;;5073596;28;20901;-82
2023/01/15 12:23:40;;;;;;;0.30;0.20;;;4.50;99.90;;;;;;5073840;28;20441;-82
2023/01/15 12:26:17;;;;;;;0.30;0.20;;;4.50;99.90;;;;;;5073646;28;20484;-81
2023/01/15 12:29:00;;;;;;;0.30;0.20;;;4.40;99.90;;;;;;5073494;28;20433;-81
2023/01/15 12:31:31;;;;;;;0.30;0.20;;;4.40;99.90;;;;;;5073752;28;20433;-81
2023/01/15 12:34:03;;;;;;;0.30;0.30;;;4.40;99.90;;;;;;5073751;28;20436;-81
2023/01/15 12:36:38;;;;;;;0.30;0.20;;;4.50;99.90;;;;;;5073396;28;20933;-81
2023/01/15 12:39:16;;;;;;;0.30;0.20;;;4.40;99.90;;;;;;5073659;28;20429;-81
2023/01/15 12:47:28;;;;;;;0.30;0.20;;;4.30;99.90;;;;;;5073362;28;20414;-81
2023/01/15 12:50:00;;;;;;;0.30;0.20;;;4.30;99.90;;;;;;5073239;28;20909;-81
2023/01/15 12:52:33;;;;;;;0.30;0.20;;;4.30;99.90;;;;;;5073524;28;20449;-81
2023/01/15 12:55:09;;;;;;;0.30;0.20;;;4.30;99.90;;;;;;5073389;28;20476;-81
2023/01/15 12:57:39;;;;;;;0.30;0.20;;;4.30;99.90;;;;;;5073189;28;20951;-82
2023/01/15 13:00:13;;;;;;;0.30;0.20;;;4.30;99.90;;;;;;5073403;28;20453;-81
2023/01/15 13:02:52;;;;;;;0.30;0.20;;;4.30;99.90;;;;;;5073056;28;20975;-82
2023/01/15 13:05:22;;;;;;;0.30;0.20;;;4.30;99.90;;;;;;5072979;28;20999;-82
2023/01/15 13:07:53;;;;;;;0.30;0.20;;;4.30;99.90;;;;;;5073409;28;20864;-82
2023/01/15 13:10:24;;;;;;;0.30;0.20;;;4.30;99.90;;;;;;5073575;28;20418;-82
2023/01/15 13:12:52;;;;;;;0.30;0.20;;;4.30;99.90;;;;;;5073336;28;20426;-82
2023/01/15 13:15:21;;;;;;;0.30;0.20;;;4.40;99.90;;;;;;5072596;28;20492;-83
2023/01/15 13:18:01;;;;;;;0.30;0.20;;;4.50;99.90;;;;;;5073206;28;20449;-83
2023/01/15 13:20:41;;;;;;;0.40;0.30;;;4.60;99.90;;;;;;5073519;28;20445;-82
2023/01/15 13:23:22;;;;;;;0.30;0.20;;;4.60;99.90;;;;;;5074159;28;20447;-81
2023/01/15 13:26:06;;;;;;;0.30;0.20;;;4.50;99.90;;;;;;5077176;28;20472;-81
2023/01/15 13:28:47;;;;;;;0.60;0.40;;;4.50;99.90;;;;;;5077293;28;20433;-81
2023/01/15 13:31:36;;;;;;;0.30;0.20;;;4.60;99.90;;;;;;5076849;28;20905;-81
2023/01/15 13:34:10;;;;;;;0.30;0.20;;;4.60;99.90;;;;;;5064091;28;20449;-81
2023/01/15 13:36:42;;;;;;;0.30;0.20;;;4.50;99.90;;;;;;5077064;28;20425;-81
2023/01/15 13:39:17;;;;;;;0.30;0.30;;;4.60;99.90;;;;;;5077038;28;20430;-81
2023/01/15 13:44:37;;;;;;;0.30;0.20;;;4.80;99.90;;;;;;5076642;28;20448;-81
2023/01/15 13:47:07;;;;;;;0.30;0.20;;;4.80;99.90;;;;;;5076848;28;20433;-81
2023/01/15 13:49:37;;;;;;;0.30;0.20;;;4.60;99.90;;;;;;5076817;28;20436;-82
2023/01/15 13:52:06;;;;;;;0.30;0.30;;;4.60;99.90;;;;;;5076793;28;20430;-82
2023/01/15 13:54:40;;;;;;;0.50;0.30;;;4.60;99.90;;;;;;5076568;28;20501;-81
2023/01/15 13:57:09;;;;;;;0.30;0.20;;;4.60;99.90;;;;;;5076641;28;20448;-82
2023/01/15 13:59:42;;;;;;;0.30;0.30;;;4.50;99.90;;;;;;5076607;28;20448;-82
2023/01/15 14:02:25;;;;;;;0.30;0.27;;;4.40;99.90;;;;;;5076502;28;20465;-82
2023/01/15 14:04:52;;;;;;;0.30;0.20;;;4.40;99.90;;;;;;5076435;28;20465;-81